Time;durP1;ratioP1;P1;durP2;ratioP2;P2;SDS_P1;SDS_P2;PMS_P1;PMS_P2;Temp;Humidity;BMP_temperature;BMP_pressure;BME280_temperature;BME280_humidity;BME280_pressure;Samples;Min_cycle;Max_cycle;Signal;HPM_P1;HPM_P2
2022/03/19 00:01:29;;;;;;;32.30;5.82;;;;;;;2.31;76.33;103859.16;5045392;28;20080;-63
2022/03/19 00:03:54;;;;;;;28.52;4.82;;;;;;;2.33;76.37;103865.31;5045351;28;20052;-63
2022/03/19 00:06:20;;;;;;;22.65;4.03;;;;;;;2.31;76.32;103854.03;5045519;28;20111;-63
2022/03/19 00:08:46;;;;;;;16.23;4.05;;;;;;;2.41;76.53;103863.38;5045552;28;20036;-63
2022/03/19 00:11:11;;;;;;;26.75;3.65;;;;;;;2.46;76.75;103860.41;5045469;28;20072;-63
2022/03/19 00:13:37;;;;;;;22.88;3.95;;;;;;;2.51;76.63;103863.31;5045490;28;20030;-63
2022/03/19 00:16:03;;;;;;;25.70;6.45;;;;;;;2.57;76.47;103870.66;5045528;28;20029;-63
2022/03/19 00:18:28;;;;;;;20.77;3.75;;;;;;;2.55;76.36;103869.63;5045392;28;20033;-63
2022/03/19 00:20:54;;;;;;;20.33;4.60;;;;;;;2.52;76.23;103869.38;5027590;28;20452;-63
2022/03/19 00:23:19;;;;;;;21.30;4.47;;;;;;;2.47;76.37;103864.78;5045065;28;20107;-63
2022/03/19 00:25:45;;;;;;;22.02;4.05;;;;;;;2.44;76.69;103874.78;5044866;28;20044;-63
2022/03/19 00:28:10;;;;;;;15.73;3.92;;;;;;;2.45;76.72;103876.56;5045036;28;20029;-63
2022/03/19 00:30:35;;;;;;;17.42;3.30;;;;;;;2.41;76.74;103871.94;5044954;28;20377;-62
2022/03/19 00:33:01;;;;;;;18.13;2.97;;;;;;;2.42;77.13;103870.28;5045076;28;20025;-63
2022/03/19 00:35:26;;;;;;;18.08;4.45;;;;;;;2.45;77.08;103874.00;5044626;28;20032;-62
2022/03/19 00:37:53;;;;;;;22.83;4.65;;;;;;;2.43;77.02;103875.53;5044528;28;20076;-62
2022/03/19 00:40:21;;;;;;;23.38;4.65;;;;;;;2.40;77.04;103877.84;5044625;28;20052;-62
2022/03/19 00:42:48;;;;;;;11.90;3.85;;;;;;;2.41;77.24;103871.94;5045167;28;20032;-62
2022/03/19 00:45:13;;;;;;;14.85;4.90;;;;;;;2.45;77.49;103874.00;5044800;28;20025;-62
2022/03/19 00:47:39;;;;;;;7.72;2.40;;;;;;;2.50;77.41;103873.47;5043967;28;20027;-62
2022/03/19 00:50:05;;;;;;;14.48;2.60;;;;;;;2.55;77.45;103870.53;5044526;28;20052;-62
2022/03/19 00:52:31;;;;;;;11.57;2.95;;;;;;;2.64;77.66;103872.91;5044515;28;20032;-62
2022/03/19 00:54:56;;;;;;;11.95;2.83;;;;;;;2.74;77.85;103874.56;5044279;28;20025;-62
2022/03/19 00:57:22;;;;;;;7.82;2.45;;;;;;;2.78;77.38;103871.47;5044421;28;20477;-62
2022/03/19 00:59:47;;;;;;;21.33;2.97;;;;;;;2.78;76.98;103868.03;5044563;28;20022;-62
2022/03/19 01:02:13;;;;;;;10.25;2.65;;;;;;;2.77;76.76;103879.03;5044679;28;20044;-62
2022/03/19 01:04:38;;;;;;;13.25;3.65;;;;;;;2.76;76.75;103872.13;5044233;28;20029;-62
2022/03/19 01:07:03;;;;;;;18.13;5.45;;;;;;;2.72;76.58;103879.56;5044339;28;20080;-62
2022/03/19 01:09:29;;;;;;;14.35;3.70;;;;;;;2.64;76.63;103880.63;5044014;28;20025;-62
2022/03/19 01:11:54;;;;;;;25.10;4.95;;;;;;;2.55;76.66;103872.19;5044258;28;20028;-62
2022/03/19 01:14:20;;;;;;;11.88;3.33;;;;;;;2.48;76.69;103881.03;5044183;28;20036;-62
2022/03/19 01:16:46;;;;;;;7.72;2.38;;;;;;;2.49;77.15;103877.72;5044784;28;20373;-62
2022/03/19 01:19:11;;;;;;;15.15;2.80;;;;;;;2.53;77.05;103878.84;5044371;28;20580;-62
2022/03/19 01:21:36;;;;;;;14.68;2.55;;;;;;;2.62;77.68;103871.88;5044174;28;20021;-63
2022/03/19 01:24:03;;;;;;;11.90;2.10;;;;;;;2.74;77.98;103872.00;5044050;28;20096;-62
2022/03/19 01:26:28;;;;;;;14.18;2.63;;;;;;;2.86;78.10;103877.19;5043917;28;20083;-63
2022/03/19 01:28:54;;;;;;;10.90;2.55;;;;;;;2.94;77.92;103878.72;5044099;28;20108;-62
2022/03/19 01:31:23;;;;;;;17.98;3.17;;;;;;;2.98;77.88;103877.28;5043886;28;20548;-62
2022/03/19 01:33:49;;;;;;;12.65;2.38;;;;;;;3.08;77.80;103877.22;5043666;28;20029;-62
2022/03/19 01:36:14;;;;;;;10.85;1.55;;;;;;;3.14;77.95;103884.53;5026063;28;20030;-61
2022/03/19 01:38:39;;;;;;;10.00;1.92;;;;;;;3.19;77.63;103883.25;5043658;28;20080;-61
2022/03/19 01:41:05;;;;;;;12.27;1.90;;;;;;;3.24;77.33;103877.56;5043476;28;20021;-62
2022/03/19 01:43:30;;;;;;;14.68;2.63;;;;;;;3.28;77.07;103874.44;5043740;28;20025;-62
2022/03/19 01:45:55;;;;;;;9.73;1.55;;;;;;;3.32;76.88;103877.38;5043557;28;20020;-62
2022/03/19 01:48:21;;;;;;;8.38;1.90;;;;;;;3.44;76.41;103877.44;5043787;28;20021;-62
2022/03/19 01:50:46;;;;;;;8.63;1.55;;;;;;;3.53;75.89;103866.97;5043627;28;20029;-61
2022/03/19 01:53:12;;;;;;;9.48;2.00;;;;;;;3.64;75.11;103869.47;5043480;28;20021;-61
2022/03/19 01:55:37;;;;;;;5.18;1.52;;;;;;;3.67;74.67;103867.13;5043180;28;20053;-61
2022/03/19 01:58:04;;;;;;;6.72;1.25;;;;;;;3.69;74.24;103873.31;5043668;28;20025;-62
2022/03/19 02:00:29;;;;;;;4.38;1.05;;;;;;;3.76;73.61;103875.53;5043583;28;20021;-62
2022/03/19 02:02:56;;;;;;;7.47;1.33;;;;;;;3.80;73.18;103872.41;5043612;28;20028;-62
2022/03/19 02:05:23;;;;;;;8.30;1.20;;;;;;;3.87;72.80;103871.22;5043338;28;20052;-62
2022/03/19 02:07:50;;;;;;;7.43;1.05;;;;;;;3.96;72.25;103873.59;5043536;28;20060;-62
2022/03/19 02:10:18;;;;;;;2.72;1.02;;;;;;;3.99;71.60;103866.13;5043196;28;20018;-62
2022/03/19 02:12:44;;;;;;;4.82;1.20;;;;;;;4.03;71.48;103872.34;5043527;28;20105;-61
2022/03/19 02:15:10;;;;;;;5.85;1.20;;;;;;;4.04;71.25;103875.03;5043125;28;20033;-62
2022/03/19 02:17:36;;;;;;;8.23;1.08;;;;;;;4.06;70.92;103870.00;5025574;28;20036;-61
2022/03/19 02:20:03;;;;;;;8.93;1.60;;;;;;;4.09;70.50;103865.09;5043227;28;20038;-62
2022/03/19 02:22:29;;;;;;;6.43;2.30;;;;;;;4.00;70.15;103869.56;5043210;28;20021;-62
2022/03/19 02:27:40;;;;;;;5.30;1.65;;;;;;;3.68;70.35;103877.53;5043234;28;20036;-61
2022/03/19 02:30:08;;;;;;;5.10;1.40;;;;;;;3.57;70.48;103873.25;5043094;28;20085;-62
2022/03/19 02:32:34;;;;;;;8.27;1.50;;;;;;;3.50;70.45;103877.00;5043143;28;20052;-61
2022/03/19 02:35:00;;;;;;;4.65;1.80;;;;;;;3.39;70.14;103878.75;5043160;28;20025;-62
2022/03/19 02:37:25;;;;;;;5.22;1.50;;;;;;;3.26;70.40;103883.72;5042802;28;20041;-62
2022/03/19 02:39:51;;;;;;;5.45;1.60;;;;;;;3.31;69.79;103879.81;5042806;28;20422;-62
2022/03/19 02:42:18;;;;;;;6.30;1.58;;;;;;;3.18;70.02;103881.44;5042836;28;20461;-62
2022/03/19 02:44:44;;;;;;;7.30;1.17;;;;;;;3.17;69.92;103874.50;5025271;28;20045;-62
2022/03/19 02:47:10;;;;;;;9.13;2.00;;;;;;;3.09;69.89;103879.03;5043061;28;20026;-62
2022/03/19 02:49:35;;;;;;;2.08;0.90;;;;;;;3.12;69.80;103882.59;5042855;28;20017;-62
2022/03/19 02:52:01;;;;;;;6.55;1.70;;;;;;;3.21;69.33;103881.66;5042933;28;20025;-62
2022/03/19 02:54:30;;;;;;;5.55;2.25;;;;;;;3.16;69.32;103880.44;5042600;28;20033;-62
2022/03/19 02:56:58;;;;;;;2.90;1.42;;;;;;;3.10;69.49;103882.50;5042924;28;20017;-62
2022/03/19 02:59:25;;;;;;;4.90;1.13;;;;;;;3.01;69.69;103884.34;5042833;28;20398;-62
2022/03/19 03:02:03;;;;;;;9.75;2.08;;;;;;;3.09;69.52;103888.41;5042637;28;20049;-62
2022/03/19 03:04:28;;;;;;;4.90;1.42;;;;;;;3.19;68.87;103884.91;5042873;28;20051;-62
2022/03/19 03:06:57;;;;;;;2.17;1.00;;;;;;;3.34;68.27;103886.09;5042688;28;20014;-62
2022/03/19 03:09:24;;;;;;;3.22;1.13;;;;;;;3.30;68.29;103888.31;5042561;28;20036;-62
2022/03/19 03:11:50;;;;;;;4.50;1.27;;;;;;;3.20;68.51;103886.69;5045354;28;20047;-62
2022/03/19 03:14:18;;;;;;;8.63;1.60;;;;;;;3.15;68.81;103894.03;5046496;28;20037;-62
2022/03/19 03:16:44;;;;;;;5.78;1.13;;;;;;;3.24;68.24;103888.72;5046364;28;20029;-62
2022/03/19 03:19:11;;;;;;;3.47;1.23;;;;;;;3.21;68.36;103891.94;5046356;28;20113;-62
2022/03/19 03:21:39;;;;;;;4.00;0.90;;;;;;;3.19;68.45;103896.09;5046255;28;20032;-62
2022/03/19 03:24:05;;;;;;;3.95;0.98;;;;;;;3.29;68.04;103900.25;5046252;28;20028;-62
2022/03/19 03:26:30;;;;;;;3.72;1.13;;;;;;;3.45;67.27;103901.47;5046042;28;20048;-64
2022/03/19 03:28:57;;;;;;;3.45;1.13;;;;;;;3.48;66.66;103894.00;5046545;28;20040;-63
2022/03/19 03:31:23;;;;;;;3.88;1.10;;;;;;;3.46;66.68;103890.41;5046397;28;20021;-63
2022/03/19 03:33:48;;;;;;;4.35;1.10;;;;;;;3.37;67.09;103899.97;5046166;28;20025;-63
2022/03/19 03:36:14;;;;;;;6.45;1.35;;;;;;;3.31;67.37;103901.28;5045920;28;20022;-63
2022/03/19 03:38:39;;;;;;;5.32;1.00;;;;;;;3.35;66.92;103903.28;5045715;28;20049;-63
2022/03/19 03:41:05;;;;;;;6.63;1.55;;;;;;;3.51;66.13;103908.75;5045821;28;20479;-63
2022/03/19 03:43:31;;;;;;;1.33;0.95;;;;;;;3.45;66.07;103904.03;5045812;28;20030;-63
2022/03/19 03:45:56;;;;;;;4.30;1.40;;;;;;;3.33;66.36;103906.53;5045907;28;20112;-63
2022/03/19 03:48:22;;;;;;;4.07;1.20;;;;;;;3.24;66.57;103914.41;5045830;28;20025;-62
2022/03/19 03:50:51;;;;;;;4.72;1.60;;;;;;;3.22;66.81;103914.28;5045895;28;20033;-63
2022/03/19 03:53:17;;;;;;;3.47;1.00;;;;;;;3.20;66.82;103917.50;5045714;28;20018;-63
2022/03/19 03:55:43;;;;;;;1.60;1.10;;;;;;;3.18;66.98;103917.38;5045421;28;20025;-63
2022/03/19 03:58:09;;;;;;;7.38;1.70;;;;;;;3.18;66.99;103916.50;5046085;28;20024;-63
2022/03/19 04:00:35;;;;;;;4.22;1.50;;;;;;;3.17;66.88;103922.41;5045697;28;20113;-63
2022/03/19 04:03:00;;;;;;;5.28;1.25;;;;;;;3.18;66.63;103924.22;5027915;28;20025;-62
2022/03/19 04:05:26;;;;;;;9.55;1.77;;;;;;;3.14;66.56;103923.06;5045431;28;20385;-62
2022/03/19 04:07:51;;;;;;;4.68;1.40;;;;;;;3.02;66.65;103927.22;5045630;28;20026;-63
2022/03/19 04:10:17;;;;;;;5.05;1.30;;;;;;;2.88;67.20;103929.56;5045051;28;20026;-62
2022/03/19 04:12:43;;;;;;;4.78;1.83;;;;;;;2.85;67.23;103934.44;5045333;28;20453;-62
2022/03/19 04:15:09;;;;;;;5.55;1.27;;;;;;;2.81;67.50;103935.84;5045169;28;20489;-62
2022/03/19 04:17:34;;;;;;;3.83;0.95;;;;;;;2.81;67.85;103938.44;5045212;28;20063;-62
2022/03/19 04:20:01;;;;;;;4.55;1.35;;;;;;;2.71;68.11;103941.03;5045180;28;20029;-62
2022/03/19 04:22:40;;;;;;;5.22;1.80;;;;;;;2.85;67.88;103939.56;5043970;28;20029;-64
2022/03/19 04:25:14;;;;;;;3.33;1.30;;;;;;;2.95;67.45;103934.44;5045040;28;20025;-62
2022/03/19 04:27:41;;;;;;;9.45;2.08;;;;;;;3.07;67.01;103939.63;5045343;28;20021;-63
2022/03/19 04:30:07;;;;;;;5.72;1.65;;;;;;;3.15;66.47;103931.63;5045304;28;20017;-62
2022/03/19 04:32:42;;;;;;;7.90;3.20;;;;;;;3.13;66.72;103934.09;5044825;28;20080;-62
2022/03/19 04:36:30;;;;;;;5.97;1.80;;;;;;;3.10;66.58;103941.53;5044779;28;20040;-62
2022/03/19 04:38:06;;;;;;;5.32;1.80;;;;;;;3.01;66.78;103939.16;5044586;28;20184;-63
2022/03/19 04:40:32;;;;;;;6.28;2.17;;;;;;;3.04;66.50;103936.81;5044726;28;20028;-63
2022/03/19 04:42:57;;;;;;;5.43;1.20;;;;;;;3.09;66.55;103940.66;5044814;28;20327;-62
2022/03/19 04:45:24;;;;;;;1.73;0.85;;;;;;;3.10;66.57;103945.00;5044733;28;20028;-65
2022/03/19 04:47:49;;;;;;;5.50;1.30;;;;;;;3.16;66.42;103941.16;5044727;28;20477;-62
2022/03/19 04:50:15;;;;;;;9.27;1.27;;;;;;;3.25;66.08;103943.53;5044712;28;20080;-64
2022/03/19 04:52:40;;;;;;;3.00;1.08;;;;;;;3.30;65.80;103943.16;5044560;28;20037;-62
2022/03/19 04:55:07;;;;;;;2.63;1.17;;;;;;;3.38;65.40;103940.28;5044469;28;20056;-62
2022/03/19 04:57:33;;;;;;;3.92;0.85;;;;;;;3.46;64.73;103934.06;5044716;28;20021;-62
2022/03/19 04:59:59;;;;;;;4.57;1.00;;;;;;;3.59;64.20;103938.50;5044546;28;20029;-63
2022/03/19 05:02:24;;;;;;;5.47;1.05;;;;;;;3.69;64.25;103946.13;5044552;28;20246;-63
2022/03/19 05:04:54;;;;;;;5.43;1.33;;;;;;;3.77;64.00;103943.28;5044379;28;20036;-63
2022/03/19 05:07:21;;;;;;;2.33;1.20;;;;;;;3.76;63.85;103949.19;5044348;28;20342;-64
2022/03/19 05:12:32;;;;;;;1.63;0.80;;;;;;;3.83;63.62;103934.34;5044514;28;20109;-64
2022/03/19 05:14:58;;;;;;;1.83;1.15;;;;;;;3.89;63.26;103940.75;5044049;28;20485;-64
2022/03/19 05:17:23;;;;;;;1.48;0.60;;;;;;;4.02;63.08;103945.16;5044108;28;20101;-63
2022/03/19 05:19:49;;;;;;;3.20;0.90;;;;;;;3.99;62.87;103952.63;5044038;28;20028;-63
2022/03/19 05:22:14;;;;;;;3.42;1.20;;;;;;;4.05;62.79;103956.56;5026294;28;20029;-63
2022/03/19 05:24:40;;;;;;;1.30;0.80;;;;;;;3.97;62.99;103947.38;5043773;28;20060;-63
2022/03/19 05:27:05;;;;;;;4.20;1.00;;;;;;;3.96;63.36;103950.72;5044177;28;20381;-63
2022/03/19 05:29:31;;;;;;;1.77;0.82;;;;;;;4.12;62.96;103957.91;5044021;28;20529;-63
2022/03/19 05:31:58;;;;;;;1.25;1.00;;;;;;;4.06;63.27;103958.34;5044244;28;20033;-63
2022/03/19 05:34:29;;;;;;;1.95;0.82;;;;;;;4.24;62.66;103969.91;5043587;28;20029;-63
2022/03/19 05:36:55;;;;;;;6.30;1.20;;;;;;;4.32;62.51;103964.59;5043624;28;20113;-63
2022/03/19 05:39:21;;;;;;;1.75;1.00;;;;;;;4.31;62.69;103970.50;5025868;28;20508;-64
2022/03/19 05:41:47;;;;;;;1.75;0.93;;;;;;;4.42;62.54;103976.47;5025995;28;20039;-63
2022/03/19 05:44:12;;;;;;;0.75;0.60;;;;;;;4.60;62.30;103976.03;5043451;28;20063;-63
2022/03/19 05:46:37;;;;;;;3.92;0.93;;;;;;;4.81;61.53;103973.25;5043716;28;20023;-63
2022/03/19 05:49:03;;;;;;;1.30;0.90;;;;;;;5.12;60.39;103985.78;5043705;28;20025;-64
2022/03/19 05:51:28;;;;;;;1.42;0.80;;;;;;;5.25;59.73;103982.44;5043646;28;20434;-64
2022/03/19 05:53:54;;;;;;;2.17;1.50;;;;;;;5.20;60.21;103981.19;5043560;28;20021;-63
2022/03/19 05:56:19;;;;;;;2.22;1.02;;;;;;;5.38;59.91;103985.88;5043387;28;20032;-64
2022/03/19 05:58:45;;;;;;;3.35;0.98;;;;;;;5.64;59.01;103990.28;5043815;28;20091;-64
2022/03/19 06:01:10;;;;;;;3.58;0.98;;;;;;;5.88;58.61;104003.09;5043411;28;20025;-63
2022/03/19 06:03:35;;;;;;;3.45;0.95;;;;;;;6.08;57.96;104001.03;5043724;28;20021;-63
2022/03/19 06:06:01;;;;;;;7.05;1.05;;;;;;;6.08;57.95;103990.72;5043287;28;20079;-63
2022/03/19 06:08:27;;;;;;;1.67;0.80;;;;;;;6.19;57.71;104002.66;5043576;28;20033;-64
2022/03/19 06:10:52;;;;;;;1.38;1.10;;;;;;;6.21;57.33;104002.78;5042990;28;20029;-64
2022/03/19 06:13:17;;;;;;;4.72;1.25;;;;;;;6.23;56.98;104001.16;5043534;28;20458;-63
2022/03/19 06:15:43;;;;;;;3.10;1.10;;;;;;;6.19;56.80;103997.50;5043354;28;20026;-63
2022/03/19 06:18:08;;;;;;;6.93;1.35;;;;;;;6.22;56.86;104001.97;5043248;28;20111;-64
2022/03/19 06:20:33;;;;;;;2.95;1.10;;;;;;;6.40;56.20;103998.84;5043293;28;20108;-63
2022/03/19 06:23:00;;;;;;;2.90;1.13;;;;;;;6.59;55.96;103995.81;5043187;28;20045;-63
2022/03/19 06:25:26;;;;;;;2.85;1.30;;;;;;;6.86;56.19;104000.09;5042765;28;20052;-63
2022/03/19 06:27:51;;;;;;;2.58;1.13;;;;;;;7.25;55.84;103997.41;5043115;28;20025;-63
2022/03/19 06:30:16;;;;;;;4.38;1.42;;;;;;;7.69;54.50;103994.13;5043171;28;20025;-63
2022/03/19 06:32:42;;;;;;;4.68;1.50;;;;;;;7.96;53.98;103982.78;5043051;28;20097;-63
2022/03/19 06:35:09;;;;;;;6.53;1.35;;;;;;;8.40;53.92;103996.56;5042803;28;20088;-64
2022/03/19 06:37:35;;;;;;;4.65;1.10;;;;;;;8.88;54.14;104001.03;5043059;28;20052;-63
2022/03/19 06:40:06;;;;;;;4.50;1.60;;;;;;;9.45;53.43;104004.13;5042889;28;20017;-63
2022/03/19 06:42:34;;;;;;;2.72;1.55;;;;;;;10.06;52.38;104009.91;5043272;28;20018;-63
2022/03/19 06:45:00;;;;;;;5.03;1.23;;;;;;;10.66;52.28;103999.97;5043257;28;20277;-63
2022/03/19 06:47:25;;;;;;;5.40;1.42;;;;;;;11.38;51.71;104002.44;5046785;28;20048;-63
2022/03/19 06:49:51;;;;;;;3.50;1.20;;;;;;;12.02;50.78;104000.97;5047073;28;20044;-63
2022/03/19 06:52:16;;;;;;;3.70;1.52;;;;;;;12.79;49.84;103998.94;5047121;28;20021;-64
2022/03/19 06:54:42;;;;;;;3.00;1.20;;;;;;;13.53;48.76;104005.22;5046819;28;20501;-64
2022/03/19 06:57:08;;;;;;;8.05;1.83;;;;;;;14.21;47.31;104005.88;5046779;28;20533;-64
2022/03/19 06:59:33;;;;;;;5.30;1.38;;;;;;;14.83;45.40;104001.78;5028964;28;20033;-64
2022/03/19 07:01:59;;;;;;;3.65;1.40;;;;;;;14.96;43.53;103997.84;5046888;28;20029;-63
2022/03/19 07:04:24;;;;;;;3.75;1.50;;;;;;;15.15;43.65;104003.63;5046585;28;20028;-63
2022/03/19 07:06:49;;;;;;;5.10;1.40;;;;;;;15.51;42.80;104008.16;5047083;28;20097;-63
2022/03/19 07:09:15;;;;;;;12.02;2.05;;;;;;;15.82;41.46;104002.91;5046846;28;20108;-64
2022/03/19 07:11:40;;;;;;;4.15;1.20;;;;;;;15.94;40.68;103991.88;5046488;28;20136;-66
2022/03/19 07:14:06;;;;;;;3.95;1.20;;;;;;;15.90;39.23;103990.91;5046455;28;20021;-63
2022/03/19 07:16:31;;;;;;;2.92;1.20;;;;;;;15.92;38.67;103988.31;5046376;28;20108;-66
2022/03/19 07:18:57;;;;;;;5.00;1.27;;;;;;;15.99;38.29;104000.75;5046479;28;20021;-69
2022/03/19 07:21:22;;;;;;;2.70;0.90;;;;;;;16.10;38.33;104004.56;5046480;28;20040;-68
2022/03/19 07:23:49;;;;;;;3.90;1.20;;;;;;;16.19;38.54;104008.28;5046190;28;20083;-65
2022/03/19 07:26:14;;;;;;;5.72;1.55;;;;;;;16.48;37.67;104006.38;5028182;28;20029;-68
2022/03/19 07:28:40;;;;;;;3.63;1.27;;;;;;;16.89;36.78;104007.31;5046404;28;20044;-63
2022/03/19 07:31:06;;;;;;;2.95;1.10;;;;;;;17.14;36.14;104010.50;5046249;28;20021;-68
2022/03/19 07:33:34;;;;;;;5.07;1.65;;;;;;;17.05;35.63;104002.41;5045712;28;20022;-64
2022/03/19 07:36:01;;;;;;;4.68;1.38;;;;;;;17.09;34.04;104006.94;5045768;28;20079;-68
2022/03/19 07:38:26;;;;;;;4.65;1.75;;;;;;;17.12;34.41;103998.22;5045513;28;20149;-68
2022/03/19 07:43:36;;;;;;;4.25;1.30;;;;;;;17.07;34.54;104001.59;5045892;28;20027;-65
2022/03/19 07:46:02;;;;;;;4.55;1.20;;;;;;;16.97;34.66;104004.88;5045427;28;20140;-66
2022/03/19 07:48:27;;;;;;;2.95;1.45;;;;;;;16.80;34.74;103996.63;5045405;28;20032;-64
2022/03/19 07:50:53;;;;;;;3.53;1.65;;;;;;;16.87;33.75;104009.00;5045105;28;20029;-63
2022/03/19 07:53:19;;;;;;;8.65;2.40;;;;;;;16.80;34.28;104015.00;5046001;28;20248;-62
2022/03/19 07:55:44;;;;;;;4.63;1.60;;;;;;;16.95;33.97;104011.81;5045234;28;20472;-63
2022/03/19 07:58:10;;;;;;;5.53;1.38;;;;;;;16.96;33.41;104009.22;5045863;28;20029;-63
2022/03/19 08:00:36;;;;;;;4.47;1.58;;;;;;;16.71;33.04;104013.00;5045731;28;20400;-64
2022/03/19 08:03:01;;;;;;;3.95;1.25;;;;;;;16.59;33.11;104004.03;5045884;28;20102;-62
2022/03/19 08:05:27;;;;;;;5.25;1.38;;;;;;;16.53;32.69;104011.75;5045450;28;20504;-62
2022/03/19 08:07:52;;;;;;;4.65;1.02;;;;;;;16.43;31.48;104012.34;5045416;28;20330;-63
2022/03/19 08:10:18;;;;;;;3.38;1.40;;;;;;;16.15;30.77;104016.91;5045311;28;20032;-62
2022/03/19 08:12:45;;;;;;;7.22;1.40;;;;;;;15.75;31.35;104012.31;5045625;28;20025;-62
2022/03/19 08:15:11;;;;;;;3.13;1.23;;;;;;;15.58;31.77;104012.75;5045465;28;20034;-62
2022/03/19 08:17:37;;;;;;;1.88;1.05;;;;;;;15.44;31.60;104014.97;5045282;28;20029;-63
2022/03/19 08:20:06;;;;;;;2.15;0.82;;;;;;;15.46;32.07;104023.75;5045597;28;20425;-63
2022/03/19 08:22:32;;;;;;;4.28;1.10;;;;;;;15.45;31.89;104013.22;5045417;28;20100;-62
2022/03/19 08:24:58;;;;;;;2.28;1.17;;;;;;;15.52;31.91;104012.56;5045049;28;20034;-62
2022/03/19 08:27:24;;;;;;;4.68;1.17;;;;;;;15.52;31.36;104014.28;5045448;28;20081;-62
2022/03/19 08:29:50;;;;;;;3.17;1.00;;;;;;;15.26;31.10;104012.69;5045459;28;20121;-63
2022/03/19 08:32:16;;;;;;;1.98;1.23;;;;;;;15.10;31.43;104012.22;5045263;28;20025;-63
2022/03/19 08:34:43;;;;;;;4.47;1.10;;;;;;;15.08;31.72;104013.91;5045063;28;20025;-63
2022/03/19 08:37:08;;;;;;;6.97;1.42;;;;;;;15.07;31.69;104022.59;5044899;28;20021;-62
2022/03/19 08:42:18;;;;;;;3.15;1.63;;;;;;;15.55;31.86;104025.75;5045226;28;20064;-63
2022/03/19 08:44:43;;;;;;;2.70;1.20;;;;;;;15.76;30.89;104021.97;5044875;28;20029;-63
2022/03/19 08:47:08;;;;;;;4.25;1.55;;;;;;;15.76;31.35;104024.59;5044706;28;20025;-62
2022/03/19 08:49:34;;;;;;;3.22;1.20;;;;;;;15.82;31.30;104024.75;5045156;28;20051;-63
2022/03/19 08:51:59;;;;;;;3.67;1.58;;;;;;;15.61;30.70;104023.31;5045103;28;20104;-63
2022/03/19 08:54:25;;;;;;;6.70;1.77;;;;;;;15.31;31.33;104012.81;5044848;28;20044;-63
2022/03/19 08:56:51;;;;;;;4.45;1.25;;;;;;;15.23;31.63;104023.06;5044394;28;20386;-63
2022/03/19 08:59:20;;;;;;;6.78;1.75;;;;;;;15.22;31.65;103998.63;5044842;28;20032;-63
2022/03/19 09:01:48;;;;;;;4.63;1.83;;;;;;;15.52;31.04;104016.91;5044758;28;20076;-61
2022/03/19 09:04:14;;;;;;;4.68;1.20;;;;;;;15.64;30.43;104005.91;5044621;28;20497;-62
2022/03/19 09:06:41;;;;;;;4.05;1.70;;;;;;;15.78;30.12;104017.66;5044325;28;20025;-63
2022/03/19 09:09:06;;;;;;;2.90;0.80;;;;;;;15.76;29.85;104011.50;5043989;28;20089;-63
2022/03/19 09:11:33;;;;;;;6.00;1.30;;;;;;;15.73;29.84;104001.78;5044264;28;20033;-62
2022/03/19 09:13:59;;;;;;;3.35;1.10;;;;;;;15.89;29.95;104014.44;5044485;28;20036;-60
2022/03/19 09:16:25;;;;;;;2.05;1.02;;;;;;;16.15;29.79;104011.66;5044188;28;20489;-61
2022/03/19 09:18:51;;;;;;;4.88;1.10;;;;;;;16.41;29.80;104011.44;5044282;28;20033;-62
2022/03/19 09:21:17;;;;;;;5.93;1.60;;;;;;;16.57;28.67;104020.56;5044477;28;20026;-61
2022/03/19 09:23:45;;;;;;;5.43;1.48;;;;;;;16.55;28.63;104017.91;5044627;28;20350;-62
2022/03/19 09:26:13;;;;;;;2.58;0.90;;;;;;;16.62;27.97;104013.69;5043802;28;20040;-62
2022/03/19 09:28:38;;;;;;;3.03;1.10;;;;;;;16.75;27.83;104008.72;5044155;28;20461;-61
2022/03/19 09:31:04;;;;;;;5.35;1.38;;;;;;;16.90;28.13;104016.09;5044332;28;20047;-61
2022/03/19 09:33:29;;;;;;;2.95;1.10;;;;;;;17.22;28.44;104023.84;5044039;28;20029;-62
2022/03/19 09:35:54;;;;;;;3.03;1.10;;;;;;;17.69;27.46;104037.91;5043952;28;20017;-62
2022/03/19 09:38:20;;;;;;;3.97;1.25;;;;;;;17.88;26.81;104039.16;5043612;28;20054;-62
2022/03/19 09:40:45;;;;;;;4.18;1.30;;;;;;;18.02;26.48;104033.28;5043440;28;20018;-62
2022/03/19 09:43:11;;;;;;;2.97;1.10;;;;;;;18.32;26.52;104035.56;5043309;28;20477;-62
2022/03/19 09:45:38;;;;;;;5.07;1.20;;;;;;;18.58;26.25;104027.22;5043245;28;20028;-62
2022/03/19 09:48:04;;;;;;;2.75;1.20;;;;;;;18.70;25.55;104028.28;5043557;28;20022;-63
2022/03/19 09:50:29;;;;;;;4.90;1.08;;;;;;;18.75;25.38;104030.97;5043207;28;20060;-62
2022/03/19 09:52:57;;;;;;;2.80;1.05;;;;;;;19.12;25.18;104028.88;5043321;28;20156;-62
2022/03/19 09:55:26;;;;;;;6.38;1.40;;;;;;;19.24;25.28;104022.91;5043174;28;20053;-64
2022/03/19 09:57:53;;;;;;;4.55;1.10;;;;;;;19.65;24.66;104026.91;5043237;28;20029;-62
2022/03/19 10:00:22;;;;;;;4.18;1.30;;;;;;;19.69;24.29;104025.19;5043040;28;20287;-62
2022/03/19 10:03:01;;;;;;;2.47;0.88;;;;;;;19.81;23.37;104030.59;5043121;28;20029;-62
2022/03/19 10:08:36;;;;;;;4.22;1.38;;;;;;;19.78;23.59;104032.28;4942996;29;20036;-63
2022/03/19 10:11:09;;;;;;;2.50;0.98;;;;;;;19.75;23.91;104027.88;4942638;29;20066;-62
2022/03/19 10:13:44;;;;;;;3.25;1.35;;;;;;;19.71;23.14;104035.75;4942909;29;20095;-62
2022/03/19 10:16:10;;;;;;;2.53;1.13;;;;;;;19.75;23.52;104035.78;4926919;29;20576;-62
2022/03/19 10:18:36;;;;;;;4.47;1.60;;;;;;;19.99;22.93;104038.66;4943028;29;20035;-62
2022/03/19 10:21:12;;;;;;;6.75;1.38;;;;;;;20.13;23.00;104033.53;4942956;29;20150;-62
2022/03/19 10:23:41;;;;;;;4.40;1.50;;;;;;;20.16;23.21;104036.25;4942883;29;20036;-62
2022/03/19 10:26:07;;;;;;;3.20;1.10;;;;;;;20.49;23.04;104034.75;4942449;29;20111;-62
2022/03/19 10:28:34;;;;;;;2.70;1.67;;;;;;;21.00;22.72;104036.88;4942687;29;20059;-62
2022/03/19 10:31:00;;;;;;;5.07;1.33;;;;;;;21.61;22.03;104031.81;4942769;29;20456;-63
2022/03/19 10:33:30;;;;;;;1.85;0.82;;;;;;;21.66;21.22;104031.84;4942510;29;20066;-62
2022/03/19 10:36:06;;;;;;;3.45;1.10;;;;;;;21.34;21.61;104032.59;4942436;29;20055;-63
2022/03/19 10:38:44;;;;;;;3.60;0.80;;;;;;;21.37;21.64;104022.94;4942408;29;20060;-63
2022/03/19 10:41:09;;;;;;;4.30;1.10;;;;;;;21.33;21.73;104028.19;4942425;29;20099;-62
2022/03/19 10:43:36;;;;;;;2.53;1.27;;;;;;;21.09;21.80;104029.84;5036672;28;20065;-62
2022/03/19 10:46:03;;;;;;;2.78;0.90;;;;;;;20.96;21.60;104021.00;5042393;28;20017;-62
2022/03/19 10:48:29;;;;;;;4.63;1.13;;;;;;;20.99;21.44;104019.22;5042769;28;20036;-62
2022/03/19 10:50:55;;;;;;;4.35;1.25;;;;;;;20.86;20.95;104020.91;5042711;28;20025;-62
2022/03/19 10:53:22;;;;;;;4.05;1.10;;;;;;;20.74;21.64;104018.16;5042504;28;20028;-62
2022/03/19 10:55:48;;;;;;;4.25;1.15;;;;;;;20.79;20.64;104017.34;5042067;28;20093;-62
2022/03/19 10:58:13;;;;;;;4.90;1.50;;;;;;;20.47;21.60;104010.09;5042594;28;20075;-64
2022/03/19 11:00:40;;;;;;;2.55;0.90;;;;;;;20.55;20.56;104010.13;5042280;28;20052;-62
2022/03/19 11:03:17;;;;;;;4.35;1.10;;;;;;;20.43;21.24;104011.81;5042559;28;20104;-62
2022/03/19 11:05:44;;;;;;;2.97;1.00;;;;;;;20.13;21.66;104009.81;5042281;28;20022;-62
2022/03/19 11:08:11;;;;;;;4.75;1.10;;;;;;;20.13;21.82;104012.44;5042499;28;20032;-61
2022/03/19 11:10:37;;;;;;;7.75;1.95;;;;;;;20.47;22.16;104003.91;5041953;28;20034;-62
2022/03/19 11:13:05;;;;;;;2.78;0.88;;;;;;;20.89;20.63;104004.19;5042425;28;20029;-62
2022/03/19 11:15:34;;;;;;;4.10;1.08;;;;;;;20.54;20.31;104009.25;5042196;28;20037;-62
2022/03/19 11:18:03;;;;;;;8.43;1.75;;;;;;;20.37;20.89;103997.69;5042329;28;20129;-62
2022/03/19 11:20:30;;;;;;;4.85;1.50;;;;;;;20.40;21.35;103995.97;5042317;28;20137;-62
2022/03/19 11:22:57;;;;;;;2.72;0.90;;;;;;;20.71;20.65;103997.03;5042289;28;20040;-62
2022/03/19 11:25:26;;;;;;;5.07;1.88;;;;;;;20.82;20.15;103995.34;5041744;28;20028;-62
2022/03/19 11:28:06;;;;;;;6.40;1.02;;;;;;;20.42;20.24;103995.97;5024286;28;20060;-62
2022/03/19 11:30:42;;;;;;;2.17;0.88;;;;;;;20.32;20.71;103995.00;5042518;28;20147;-62
2022/03/19 11:33:16;;;;;;;3.28;1.20;;;;;;;20.46;20.79;103997.78;5045035;28;20029;-62
2022/03/19 11:36:03;;;;;;;5.78;1.00;;;;;;;20.37;21.38;103995.03;5045689;28;20037;-63
2022/03/19 11:38:34;;;;;;;3.47;1.02;;;;;;;19.91;20.61;103988.50;5045492;28;20072;-61
2022/03/19 11:41:00;;;;;;;4.32;1.15;;;;;;;19.36;20.87;103973.88;5045435;28;20026;-64